sensor_id;sensor_type;location;lat;lon;timestamp;P1;durP1;ratioP1;P2;durP2;ratioP2
2452;SDS011;63678;47.994;7.854;2023-04-15T00:01:33;5.80;;;3.30;;
2452;SDS011;63678;47.994;7.854;2023-04-15T00:04:07;7.70;;;2.88;;
2452;SDS011;63678;47.994;7.854;2023-04-15T00:06:40;7.15;;;3.00;;
2452;SDS011;63678;47.994;7.854;2023-04-15T00:09:12;5.65;;;2.75;;
2452;SDS011;63678;47.994;7.854;2023-04-15T00:11:45;4.50;;;2.50;;
2452;SDS011;63678;47.994;7.854;2023-04-15T00:14:17;5.30;;;2.77;;
2452;SDS011;63678;47.994;7.854;2023-04-15T00:16:49;6.68;;;2.85;;
2452;SDS011;63678;47.994;7.854;2023-04-15T00:19:26;6.95;;;2.55;;
2452;SDS011;63678;47.994;7.854;2023-04-15T00:22:00;6.85;;;3.13;;
2452;SDS011;63678;47.994;7.854;2023-04-15T00:24:33;6.80;;;2.90;;
2452;SDS011;63678;47.994;7.854;2023-04-15T00:27:05;5.30;;;2.50;;
2452;SDS011;63678;47.994;7.854;2023-04-15T00:29:38;5.80;;;2.50;;
2452;SDS011;63678;47.994;7.854;2023-04-15T00:32:10;6.20;;;2.75;;
2452;SDS011;63678;47.994;7.854;2023-04-15T00:34:44;6.57;;;2.72;;
2452;SDS011;63678;47.994;7.854;2023-04-15T00:37:17;5.15;;;2.72;;
2452;SDS011;63678;47.994;7.854;2023-04-15T00:39:49;5.50;;;2.57;;
2452;SDS011;63678;47.994;7.854;2023-04-15T00:42:21;5.20;;;2.63;;
2452;SDS011;63678;47.994;7.854;2023-04-15T00:44:55;5.55;;;3.10;;
2452;SDS011;63678;47.994;7.854;2023-04-15T00:47:28;5.75;;;2.50;;
2452;SDS011;63678;47.994;7.854;2023-04-15T00:50:02;6.47;;;2.63;;
2452;SDS011;63678;47.994;7.854;2023-04-15T00:52:35;7.17;;;2.50;;
2452;SDS011;63678;47.994;7.854;2023-04-15T00:55:08;7.80;;;2.70;;
2452;SDS011;63678;47.994;7.854;2023-04-15T00:57:42;5.60;;;2.90;;
2452;SDS011;63678;47.994;7.854;2023-04-15T01:00:15;7.47;;;2.78;;
2452;SDS011;63678;47.994;7.854;2023-04-15T01:02:49;6.90;;;2.45;;
2452;SDS011;63678;47.994;7.854;2023-04-15T01:05:22;6.23;;;2.60;;
2452;SDS011;63678;47.994;7.854;2023-04-15T01:07:56;4.90;;;2.33;;
2452;SDS011;63678;47.994;7.854;2023-04-15T01:10:33;5.13;;;2.58;;
2452;SDS011;63678;47.994;7.854;2023-04-15T01:13:05;7.57;;;2.33;;
2452;SDS011;63678;47.994;7.854;2023-04-15T01:15:38;5.20;;;2.50;;
2452;SDS011;63678;47.994;7.854;2023-04-15T01:18:11;5.63;;;2.57;;
2452;SDS011;63678;47.994;7.854;2023-04-15T01:20:43;8.27;;;2.83;;
2452;SDS011;63678;47.994;7.854;2023-04-15T01:23:18;6.47;;;2.80;;
2452;SDS011;63678;47.994;7.854;2023-04-15T01:25:50;9.80;;;3.28;;
2452;SDS011;63678;47.994;7.854;2023-04-15T01:28:24;6.10;;;2.60;;
2452;SDS011;63678;47.994;7.854;2023-04-15T01:31:06;6.30;;;2.80;;
2452;SDS011;63678;47.994;7.854;2023-04-15T01:33:41;5.10;;;2.30;;
2452;SDS011;63678;47.994;7.854;2023-04-15T01:36:14;6.93;;;2.60;;
2452;SDS011;63678;47.994;7.854;2023-04-15T01:38:46;7.60;;;2.42;;
2452;SDS011;63678;47.994;7.854;2023-04-15T01:41:25;7.43;;;2.72;;
2452;SDS011;63678;47.994;7.854;2023-04-15T01:43:58;8.60;;;2.30;;
2452;SDS011;63678;47.994;7.854;2023-04-15T01:46:52;7.25;;;2.33;;
2452;SDS011;63678;47.994;7.854;2023-04-15T01:49:25;4.93;;;2.30;;
2452;SDS011;63678;47.994;7.854;2023-04-15T01:51:58;5.00;;;2.50;;
2452;SDS011;63678;47.994;7.854;2023-04-15T01:54:31;7.07;;;2.88;;
2452;SDS011;63678;47.994;7.854;2023-04-15T01:57:03;6.73;;;2.43;;
2452;SDS011;63678;47.994;7.854;2023-04-15T01:59:36;9.48;;;2.47;;
2452;SDS011;63678;47.994;7.854;2023-04-15T02:02:09;4.93;;;2.90;;
2452;SDS011;63678;47.994;7.854;2023-04-15T02:04:41;7.50;;;2.47;;
2452;SDS011;63678;47.994;7.854;2023-04-15T02:07:15;7.45;;;2.30;;
2452;SDS011;63678;47.994;7.854;2023-04-15T02:09:48;4.50;;;2.40;;
2452;SDS011;63678;47.994;7.854;2023-04-15T02:12:20;6.68;;;2.90;;
2452;SDS011;63678;47.994;7.854;2023-04-15T02:14:53;5.60;;;2.55;;
2452;SDS011;63678;47.994;7.854;2023-04-15T02:17:27;5.55;;;2.30;;
2452;SDS011;63678;47.994;7.854;2023-04-15T02:19:59;6.43;;;2.85;;
2452;SDS011;63678;47.994;7.854;2023-04-15T02:22:35;5.57;;;2.37;;
2452;SDS011;63678;47.994;7.854;2023-04-15T02:25:08;5.95;;;2.70;;
2452;SDS011;63678;47.994;7.854;2023-04-15T02:27:41;4.60;;;2.28;;
2452;SDS011;63678;47.994;7.854;2023-04-15T02:30:14;6.78;;;2.38;;
2452;SDS011;63678;47.994;7.854;2023-04-15T02:32:47;4.88;;;2.33;;
2452;SDS011;63678;47.994;7.854;2023-04-15T02:35:20;6.80;;;2.67;;
2452;SDS011;63678;47.994;7.854;2023-04-15T02:37:53;5.40;;;2.88;;
2452;SDS011;63678;47.994;7.854;2023-04-15T02:40:25;5.05;;;2.95;;
2452;SDS011;63678;47.994;7.854;2023-04-15T02:42:58;4.80;;;2.30;;
2452;SDS011;63678;47.994;7.854;2023-04-15T02:45:32;7.38;;;2.53;;
2452;SDS011;63678;47.994;7.854;2023-04-15T02:48:08;5.10;;;2.20;;
2452;SDS011;63678;47.994;7.854;2023-04-15T02:50:40;5.25;;;2.30;;
2452;SDS011;63678;47.994;7.854;2023-04-15T02:53:15;6.45;;;2.20;;
2452;SDS011;63678;47.994;7.854;2023-04-15T02:55:47;5.22;;;2.70;;
2452;SDS011;63678;47.994;7.854;2023-04-15T02:58:19;5.07;;;2.30;;
2452;SDS011;63678;47.994;7.854;2023-04-15T03:00:52;4.73;;;2.27;;
2452;SDS011;63678;47.994;7.854;2023-04-15T03:03:24;6.15;;;2.35;;
2452;SDS011;63678;47.994;7.854;2023-04-15T03:05:58;7.60;;;2.40;;
2452;SDS011;63678;47.994;7.854;2023-04-15T03:08:33;9.05;;;2.55;;
2452;SDS011;63678;47.994;7.854;2023-04-15T03:11:06;4.63;;;2.13;;
2452;SDS011;63678;47.994;7.854;2023-04-15T03:13:40;4.73;;;2.40;;
2452;SDS011;63678;47.994;7.854;2023-04-15T03:16:24;6.28;;;3.03;;
2452;SDS011;63678;47.994;7.854;2023-04-15T03:18:57;5.78;;;2.47;;
2452;SDS011;63678;47.994;7.854;2023-04-15T03:21:29;8.80;;;2.80;;
2452;SDS011;63678;47.994;7.854;2023-04-15T03:24:02;6.88;;;2.83;;
2452;SDS011;63678;47.994;7.854;2023-04-15T03:26:34;6.43;;;2.80;;
2452;SDS011;63678;47.994;7.854;2023-04-15T03:29:14;5.72;;;3.00;;
2452;SDS011;63678;47.994;7.854;2023-04-15T03:31:46;6.63;;;2.95;;
2452;SDS011;63678;47.994;7.854;2023-04-15T03:34:20;8.18;;;3.42;;
2452;SDS011;63678;47.994;7.854;2023-04-15T03:36:52;6.35;;;3.05;;
2452;SDS011;63678;47.994;7.854;2023-04-15T03:39:25;6.80;;;3.03;;
2452;SDS011;63678;47.994;7.854;2023-04-15T03:41:58;4.88;;;2.40;;
2452;SDS011;63678;47.994;7.854;2023-04-15T03:44:30;9.27;;;2.78;;
2452;SDS011;63678;47.994;7.854;2023-04-15T03:47:03;5.22;;;2.45;;
2452;SDS011;63678;47.994;7.854;2023-04-15T03:49:35;5.10;;;2.55;;
2452;SDS011;63678;47.994;7.854;2023-04-15T03:52:08;7.23;;;2.87;;
2452;SDS011;63678;47.994;7.854;2023-04-15T03:54:41;8.65;;;2.40;;
2452;SDS011;63678;47.994;7.854;2023-04-15T03:57:13;5.25;;;2.47;;
2452;SDS011;63678;47.994;7.854;2023-04-15T03:59:45;6.78;;;2.83;;
2452;SDS011;63678;47.994;7.854;2023-04-15T04:02:18;4.85;;;2.60;;
2452;SDS011;63678;47.994;7.854;2023-04-15T04:04:50;8.43;;;2.60;;
2452;SDS011;63678;47.994;7.854;2023-04-15T04:07:23;4.97;;;2.78;;
2452;SDS011;63678;47.994;7.854;2023-04-15T04:09:56;5.32;;;2.67;;
2452;SDS011;63678;47.994;7.854;2023-04-15T04:12:28;6.20;;;2.40;;
2452;SDS011;63678;47.994;7.854;2023-04-15T04:15:01;6.50;;;2.38;;
2452;SDS011;63678;47.994;7.854;2023-04-15T04:17:34;5.90;;;2.40;;
2452;SDS011;63678;47.994;7.854;2023-04-15T04:20:07;6.05;;;2.03;;
2452;SDS011;63678;47.994;7.854;2023-04-15T04:22:39;6.32;;;2.40;;
2452;SDS011;63678;47.994;7.854;2023-04-15T04:25:33;6.68;;;2.25;;
2452;SDS011;63678;47.994;7.854;2023-04-15T04:28:05;7.25;;;2.42;;
2452;SDS011;63678;47.994;7.854;2023-04-15T04:30:38;7.00;;;2.10;;
2452;SDS011;63678;47.994;7.854;2023-04-15T04:33:11;4.55;;;2.40;;
2452;SDS011;63678;47.994;7.854;2023-04-15T04:35:43;5.95;;;2.45;;
2452;SDS011;63678;47.994;7.854;2023-04-15T04:38:16;5.10;;;2.28;;
2452;SDS011;63678;47.994;7.854;2023-04-15T04:40:48;7.18;;;2.60;;
2452;SDS011;63678;47.994;7.854;2023-04-15T04:43:20;5.90;;;2.70;;
2452;SDS011;63678;47.994;7.854;2023-04-15T04:45:53;6.72;;;2.30;;
2452;SDS011;63678;47.994;7.854;2023-04-15T04:48:25;7.65;;;2.30;;
2452;SDS011;63678;47.994;7.854;2023-04-15T04:50:58;5.90;;;2.78;;
2452;SDS011;63678;47.994;7.854;2023-04-15T04:53:31;7.57;;;2.90;;
2452;SDS011;63678;47.994;7.854;2023-04-15T04:56:03;4.70;;;2.60;;
2452;SDS011;63678;47.994;7.854;2023-04-15T04:58:35;4.65;;;2.65;;
2452;SDS011;63678;47.994;7.854;2023-04-15T05:01:08;6.18;;;2.55;;
2452;SDS011;63678;47.994;7.854;2023-04-15T05:03:41;9.90;;;2.70;;
2452;SDS011;63678;47.994;7.854;2023-04-15T05:06:13;5.75;;;2.90;;
2452;SDS011;63678;47.994;7.854;2023-04-15T05:08:46;5.43;;;2.50;;
2452;SDS011;63678;47.994;7.854;2023-04-15T05:11:19;5.45;;;2.08;;
2452;SDS011;63678;47.994;7.854;2023-04-15T05:13:51;4.93;;;2.30;;
2452;SDS011;63678;47.994;7.854;2023-04-15T05:16:23;7.28;;;2.30;;
2452;SDS011;63678;47.994;7.854;2023-04-15T05:18:56;4.93;;;2.60;;
2452;SDS011;63678;47.994;7.854;2023-04-15T05:21:29;5.93;;;2.10;;
2452;SDS011;63678;47.994;7.854;2023-04-15T05:24:02;5.13;;;2.65;;
2452;SDS011;63678;47.994;7.854;2023-04-15T05:26:35;7.57;;;2.47;;
2452;SDS011;63678;47.994;7.854;2023-04-15T05:29:07;7.07;;;2.80;;
2452;SDS011;63678;47.994;7.854;2023-04-15T05:31:39;4.90;;;2.60;;
2452;SDS011;63678;47.994;7.854;2023-04-15T05:34:12;5.77;;;2.80;;
2452;SDS011;63678;47.994;7.854;2023-04-15T05:36:46;5.85;;;2.50;;
2452;SDS011;63678;47.994;7.854;2023-04-15T05:39:19;5.60;;;2.72;;
2452;SDS011;63678;47.994;7.854;2023-04-15T05:41:52;6.47;;;2.72;;
2452;SDS011;63678;47.994;7.854;2023-04-15T05:44:25;6.30;;;2.50;;
2452;SDS011;63678;47.994;7.854;2023-04-15T05:46:57;6.87;;;2.70;;
2452;SDS011;63678;47.994;7.854;2023-04-15T05:49:29;6.70;;;2.47;;
2452;SDS011;63678;47.994;7.854;2023-04-15T05:52:02;4.82;;;2.47;;
2452;SDS011;63678;47.994;7.854;2023-04-15T05:54:35;6.47;;;2.40;;
2452;SDS011;63678;47.994;7.854;2023-04-15T05:57:07;6.70;;;3.00;;
2452;SDS011;63678;47.994;7.854;2023-04-15T05:59:39;4.50;;;2.60;;
2452;SDS011;63678;47.994;7.854;2023-04-15T06:02:13;7.90;;;2.78;;
2452;SDS011;63678;47.994;7.854;2023-04-15T06:04:45;5.78;;;2.85;;
2452;SDS011;63678;47.994;7.854;2023-04-15T06:07:18;4.43;;;2.58;;
2452;SDS011;63678;47.994;7.854;2023-04-15T06:09:50;4.80;;;2.20;;
2452;SDS011;63678;47.994;7.854;2023-04-15T06:12:22;6.00;;;2.70;;
2452;SDS011;63678;47.994;7.854;2023-04-15T06:14:55;6.60;;;2.55;;
2452;SDS011;63678;47.994;7.854;2023-04-15T06:17:30;6.38;;;2.70;;
2452;SDS011;63678;47.994;7.854;2023-04-15T06:20:03;5.13;;;2.30;;
2452;SDS011;63678;47.994;7.854;2023-04-15T06:22:36;5.65;;;2.90;;
2452;SDS011;63678;47.994;7.854;2023-04-15T06:25:09;7.40;;;2.65;;
2452;SDS011;63678;47.994;7.854;2023-04-15T06:27:42;5.72;;;2.53;;
2452;SDS011;63678;47.994;7.854;2023-04-15T06:30:14;6.93;;;2.90;;
2452;SDS011;63678;47.994;7.854;2023-04-15T06:32:51;10.05;;;3.17;;
2452;SDS011;63678;47.994;7.854;2023-04-15T06:35:23;6.28;;;3.33;;
2452;SDS011;63678;47.994;7.854;2023-04-15T06:37:56;8.10;;;3.35;;
2452;SDS011;63678;47.994;7.854;2023-04-15T06:40:28;5.40;;;2.60;;
2452;SDS011;63678;47.994;7.854;2023-04-15T06:43:01;7.93;;;2.75;;
2452;SDS011;63678;47.994;7.854;2023-04-15T06:45:35;6.72;;;2.63;;
2452;SDS011;63678;47.994;7.854;2023-04-15T06:48:07;5.30;;;2.33;;
2452;SDS011;63678;47.994;7.854;2023-04-15T06:50:40;6.72;;;2.40;;
2452;SDS011;63678;47.994;7.854;2023-04-15T06:53:13;7.28;;;2.97;;
2452;SDS011;63678;47.994;7.854;2023-04-15T06:55:45;5.32;;;2.60;;
2452;SDS011;63678;47.994;7.854;2023-04-15T06:58:18;7.22;;;2.95;;
2452;SDS011;63678;47.994;7.854;2023-04-15T07:00:51;6.30;;;2.67;;
2452;SDS011;63678;47.994;7.854;2023-04-15T07:03:24;5.68;;;2.53;;
2452;SDS011;63678;47.994;7.854;2023-04-15T07:05:56;7.43;;;3.00;;
2452;SDS011;63678;47.994;7.854;2023-04-15T07:08:29;5.32;;;2.50;;
2452;SDS011;63678;47.994;7.854;2023-04-15T07:11:02;5.07;;;2.60;;
2452;SDS011;63678;47.994;7.854;2023-04-15T07:13:34;5.95;;;3.08;;
2452;SDS011;63678;47.994;7.854;2023-04-15T07:16:07;7.75;;;2.90;;
2452;SDS011;63678;47.994;7.854;2023-04-15T07:18:39;7.13;;;2.78;;
2452;SDS011;63678;47.994;7.854;2023-04-15T07:21:15;8.65;;;3.15;;
2452;SDS011;63678;47.994;7.854;2023-04-15T07:23:47;5.85;;;3.03;;
2452;SDS011;63678;47.994;7.854;2023-04-15T07:26:20;6.47;;;3.03;;
2452;SDS011;63678;47.994;7.854;2023-04-15T07:28:52;8.15;;;2.80;;
2452;SDS011;63678;47.994;7.854;2023-04-15T07:31:24;10.25;;;3.17;;
2452;SDS011;63678;47.994;7.854;2023-04-15T07:33:58;5.55;;;2.83;;
2452;SDS011;63678;47.994;7.854;2023-04-15T07:36:30;8.80;;;3.28;;
2452;SDS011;63678;47.994;7.854;2023-04-15T07:39:03;5.63;;;2.83;;
2452;SDS011;63678;47.994;7.854;2023-04-15T07:41:36;5.63;;;2.80;;
2452;SDS011;63678;47.994;7.854;2023-04-15T07:44:09;6.95;;;3.22;;
2452;SDS011;63678;47.994;7.854;2023-04-15T07:46:41;6.15;;;2.80;;
2452;SDS011;63678;47.994;7.854;2023-04-15T07:49:14;6.07;;;2.63;;
2452;SDS011;63678;47.994;7.854;2023-04-15T07:51:49;8.13;;;2.78;;
2452;SDS011;63678;47.994;7.854;2023-04-15T07:54:21;6.07;;;2.90;;
2452;SDS011;63678;47.994;7.854;2023-04-15T07:56:54;6.20;;;2.70;;
2452;SDS011;63678;47.994;7.854;2023-04-15T07:59:28;5.97;;;2.90;;
2452;SDS011;63678;47.994;7.854;2023-04-15T08:02:01;5.80;;;2.90;;
2452;SDS011;63678;47.994;7.854;2023-04-15T08:04:35;6.07;;;2.80;;
2452;SDS011;63678;47.994;7.854;2023-04-15T08:07:08;5.43;;;3.33;;
2452;SDS011;63678;47.994;7.854;2023-04-15T08:09:41;5.57;;;2.60;;
2452;SDS011;63678;47.994;7.854;2023-04-15T08:12:13;6.63;;;2.90;;
2452;SDS011;63678;47.994;7.854;2023-04-15T08:14:46;5.70;;;2.63;;
2452;SDS011;63678;47.994;7.854;2023-04-15T08:17:20;6.68;;;2.80;;
2452;SDS011;63678;47.994;7.854;2023-04-15T08:19:52;8.05;;;5.28;;
2452;SDS011;63678;47.994;7.854;2023-04-15T08:22:25;7.25;;;2.88;;
2452;SDS011;63678;47.994;7.854;2023-04-15T08:24:58;6.93;;;2.75;;
2452;SDS011;63678;47.994;7.854;2023-04-15T08:27:30;4.60;;;2.60;;
2452;SDS011;63678;47.994;7.854;2023-04-15T08:30:02;6.43;;;2.45;;
2452;SDS011;63678;47.994;7.854;2023-04-15T08:32:36;8.73;;;3.00;;
2452;SDS011;63678;47.994;7.854;2023-04-15T08:35:09;7.05;;;3.28;;
2452;SDS011;63678;47.994;7.854;2023-04-15T08:37:41;6.15;;;2.83;;
2452;SDS011;63678;47.994;7.854;2023-04-15T08:40:16;6.65;;;3.30;;
2452;SDS011;63678;47.994;7.854;2023-04-15T08:43:10;8.13;;;3.08;;
2452;SDS011;63678;47.994;7.854;2023-04-15T08:45:49;6.07;;;2.92;;
2452;SDS011;63678;47.994;7.854;2023-04-15T08:48:23;8.63;;;2.60;;
2452;SDS011;63678;47.994;7.854;2023-04-15T08:50:59;5.68;;;2.60;;
2452;SDS011;63678;47.994;7.854;2023-04-15T08:53:32;4.60;;;2.60;;
2452;SDS011;63678;47.994;7.854;2023-04-15T08:56:06;5.75;;;2.70;;
2452;SDS011;63678;47.994;7.854;2023-04-15T08:58:40;6.55;;;2.67;;
2452;SDS011;63678;47.994;7.854;2023-04-15T09:01:17;7.30;;;3.05;;
2452;SDS011;63678;47.994;7.854;2023-04-15T09:03:50;6.35;;;2.90;;
2452;SDS011;63678;47.994;7.854;2023-04-15T09:06:25;5.47;;;2.50;;
2452;SDS011;63678;47.994;7.854;2023-04-15T09:08:57;6.10;;;2.80;;
2452;SDS011;63678;47.994;7.854;2023-04-15T09:11:34;9.02;;;2.90;;
2452;SDS011;63678;47.994;7.854;2023-04-15T09:14:07;6.60;;;2.87;;
2452;SDS011;63678;47.994;7.854;2023-04-15T09:19:52;4.97;;;2.40;;
2452;SDS011;63678;47.994;7.854;2023-04-15T09:22:43;5.22;;;2.67;;
2452;SDS011;63678;47.994;7.854;2023-04-15T09:27:58;6.57;;;2.77;;
2452;SDS011;63678;47.994;7.854;2023-04-15T09:30:32;7.93;;;3.72;;
2452;SDS011;63678;47.994;7.854;2023-04-15T09:33:05;7.38;;;2.50;;
2452;SDS011;63678;47.994;7.854;2023-04-15T09:35:41;5.38;;;2.70;;
2452;SDS011;63678;47.994;7.854;2023-04-15T09:38:36;6.28;;;2.60;;
2452;SDS011;63678;47.994;7.854;2023-04-15T09:41:32;6.47;;;2.80;;
2452;SDS011;63678;47.994;7.854;2023-04-15T09:44:26;5.43;;;2.80;;
2452;SDS011;63678;47.994;7.854;2023-04-15T09:46:59;6.03;;;2.53;;
2452;SDS011;63678;47.994;7.854;2023-04-15T09:49:32;5.65;;;2.70;;
2452;SDS011;63678;47.994;7.854;2023-04-15T09:52:05;5.70;;;2.30;;
2452;SDS011;63678;47.994;7.854;2023-04-15T09:54:37;6.17;;;2.83;;
2452;SDS011;63678;47.994;7.854;2023-04-15T09:57:09;4.68;;;2.83;;
2452;SDS011;63678;47.994;7.854;2023-04-15T09:59:43;6.93;;;2.80;;
2452;SDS011;63678;47.994;7.854;2023-04-15T10:02:40;5.18;;;2.70;;
2452;SDS011;63678;47.994;7.854;2023-04-15T10:05:34;7.82;;;3.20;;
2452;SDS011;63678;47.994;7.854;2023-04-15T10:08:08;5.70;;;3.27;;
2452;SDS011;63678;47.994;7.854;2023-04-15T10:10:43;6.68;;;3.03;;
2452;SDS011;63678;47.994;7.854;2023-04-15T10:13:19;7.25;;;3.05;;
2452;SDS011;63678;47.994;7.854;2023-04-15T10:18:28;7.50;;;3.60;;
2452;SDS011;63678;47.994;7.854;2023-04-15T10:21:06;7.20;;;2.70;;
2452;SDS011;63678;47.994;7.854;2023-04-15T10:23:40;7.50;;;3.33;;
2452;SDS011;63678;47.994;7.854;2023-04-15T10:26:13;5.85;;;3.05;;
2452;SDS011;63678;47.994;7.854;2023-04-15T10:28:48;7.70;;;3.15;;
2452;SDS011;63678;47.994;7.854;2023-04-15T10:31:20;6.60;;;2.88;;
2452;SDS011;63678;47.994;7.854;2023-04-15T10:33:54;4.40;;;2.80;;
2452;SDS011;63678;47.994;7.854;2023-04-15T10:36:27;5.45;;;2.75;;
2452;SDS011;63678;47.994;7.854;2023-04-15T10:39:01;6.57;;;2.80;;
2452;SDS011;63678;47.994;7.854;2023-04-15T10:41:33;5.18;;;3.00;;
2452;SDS011;63678;47.994;7.854;2023-04-15T10:44:09;5.90;;;2.70;;
2452;SDS011;63678;47.994;7.854;2023-04-15T10:46:43;6.57;;;2.93;;
2452;SDS011;63678;47.994;7.854;2023-04-15T10:49:23;6.25;;;3.00;;
2452;SDS011;63678;47.994;7.854;2023-04-15T10:51:57;6.30;;;3.05;;
2452;SDS011;63678;47.994;7.854;2023-04-15T10:54:30;8.40;;;3.90;;
2452;SDS011;63678;47.994;7.854;2023-04-15T10:59:37;9.70;;;3.40;;
2452;SDS011;63678;47.994;7.854;2023-04-15T11:02:55;6.85;;;3.00;;
2452;SDS011;63678;47.994;7.854;2023-04-15T11:08:13;6.32;;;2.80;;
2452;SDS011;63678;47.994;7.854;2023-04-15T11:13:22;7.37;;;2.97;;
2452;SDS011;63678;47.994;7.854;2023-04-15T11:15:57;6.72;;;3.53;;
2452;SDS011;63678;47.994;7.854;2023-04-15T11:18:33;7.93;;;3.30;;
2452;SDS011;63678;47.994;7.854;2023-04-15T11:21:06;8.95;;;3.58;;
2452;SDS011;63678;47.994;7.854;2023-04-15T11:23:40;7.28;;;3.65;;
2452;SDS011;63678;47.994;7.854;2023-04-15T11:26:17;5.63;;;3.33;;
2452;SDS011;63678;47.994;7.854;2023-04-15T11:28:50;6.53;;;3.50;;
2452;SDS011;63678;47.994;7.854;2023-04-15T11:31:27;9.65;;;3.78;;
2452;SDS011;63678;47.994;7.854;2023-04-15T11:33:59;6.47;;;3.90;;
2452;SDS011;63678;47.994;7.854;2023-04-15T11:36:33;9.10;;;3.47;;
2452;SDS011;63678;47.994;7.854;2023-04-15T11:39:05;7.70;;;3.40;;
2452;SDS011;63678;47.994;7.854;2023-04-15T11:41:40;6.47;;;3.75;;
2452;SDS011;63678;47.994;7.854;2023-04-15T11:44:17;8.40;;;3.60;;
2452;SDS011;63678;47.994;7.854;2023-04-15T11:46:49;7.90;;;3.70;;
2452;SDS011;63678;47.994;7.854;2023-04-15T11:49:28;6.10;;;3.17;;
2452;SDS011;63678;47.994;7.854;2023-04-15T11:52:09;7.43;;;3.10;;
2452;SDS011;63678;47.994;7.854;2023-04-15T11:54:42;7.28;;;3.85;;
2452;SDS011;63678;47.994;7.854;2023-04-15T11:57:15;6.88;;;4.25;;
2452;SDS011;63678;47.994;7.854;2023-04-15T11:59:47;8.02;;;3.63;;
2452;SDS011;63678;47.994;7.854;2023-04-15T12:02:19;8.35;;;3.72;;
2452;SDS011;63678;47.994;7.854;2023-04-15T12:05:01;10.13;;;4.07;;
2452;SDS011;63678;47.994;7.854;2023-04-15T12:07:56;9.02;;;3.90;;
2452;SDS011;63678;47.994;7.854;2023-04-15T12:10:30;7.13;;;3.47;;
2452;SDS011;63678;47.994;7.854;2023-04-15T12:13:05;6.95;;;3.33;;
2452;SDS011;63678;47.994;7.854;2023-04-15T12:15:39;8.93;;;3.80;;
2452;SDS011;63678;47.994;7.854;2023-04-15T12:18:18;7.40;;;3.87;;
2452;SDS011;63678;47.994;7.854;2023-04-15T12:20:53;7.00;;;4.10;;
2452;SDS011;63678;47.994;7.854;2023-04-15T12:23:26;7.10;;;3.50;;
2452;SDS011;63678;47.994;7.854;2023-04-15T12:25:58;7.07;;;4.13;;
2452;SDS011;63678;47.994;7.854;2023-04-15T12:28:35;7.28;;;4.30;;
2452;SDS011;63678;47.994;7.854;2023-04-15T12:31:14;9.57;;;4.07;;
2452;SDS011;63678;47.994;7.854;2023-04-15T12:33:47;9.38;;;4.25;;
2452;SDS011;63678;47.994;7.854;2023-04-15T12:36:20;7.53;;;4.18;;
2452;SDS011;63678;47.994;7.854;2023-04-15T12:38:54;8.07;;;4.05;;
2452;SDS011;63678;47.994;7.854;2023-04-15T12:41:26;8.32;;;3.63;;
2452;SDS011;63678;47.994;7.854;2023-04-15T12:44:22;8.57;;;3.93;;
2452;SDS011;63678;47.994;7.854;2023-04-15T12:46:54;7.72;;;3.90;;
2452;SDS011;63678;47.994;7.854;2023-04-15T12:49:27;6.97;;;3.50;;
2452;SDS011;63678;47.994;7.854;2023-04-15T12:52:00;8.75;;;3.50;;
2452;SDS011;63678;47.994;7.854;2023-04-15T12:54:35;6.57;;;3.60;;
2452;SDS011;63678;47.994;7.854;2023-04-15T12:57:07;9.87;;;3.77;;
2452;SDS011;63678;47.994;7.854;2023-04-15T12:59:40;10.27;;;3.60;;
2452;SDS011;63678;47.994;7.854;2023-04-15T13:02:12;6.93;;;3.75;;
2452;SDS011;63678;47.994;7.854;2023-04-15T13:05:05;7.88;;;3.53;;
2452;SDS011;63678;47.994;7.854;2023-04-15T13:07:38;6.72;;;3.42;;
2452;SDS011;63678;47.994;7.854;2023-04-15T13:10:11;10.70;;;4.47;;
2452;SDS011;63678;47.994;7.854;2023-04-15T13:12:43;6.85;;;3.58;;
2452;SDS011;63678;47.994;7.854;2023-04-15T13:15:18;6.97;;;4.03;;
2452;SDS011;63678;47.994;7.854;2023-04-15T13:17:53;5.25;;;3.33;;
2452;SDS011;63678;47.994;7.854;2023-04-15T13:20:26;9.48;;;3.78;;
2452;SDS011;63678;47.994;7.854;2023-04-15T13:22:59;7.40;;;3.60;;
2452;SDS011;63678;47.994;7.854;2023-04-15T13:25:35;7.60;;;3.25;;
2452;SDS011;63678;47.994;7.854;2023-04-15T13:28:10;5.75;;;3.20;;
2452;SDS011;63678;47.994;7.854;2023-04-15T13:30:42;11.30;;;3.33;;
2452;SDS011;63678;47.994;7.854;2023-04-15T13:33:38;6.93;;;3.60;;
2452;SDS011;63678;47.994;7.854;2023-04-15T13:36:10;6.55;;;3.30;;
2452;SDS011;63678;47.994;7.854;2023-04-15T13:38:43;7.70;;;3.20;;
2452;SDS011;63678;47.994;7.854;2023-04-15T13:41:36;6.75;;;3.45;;
2452;SDS011;63678;47.994;7.854;2023-04-15T13:44:08;6.75;;;3.22;;
2452;SDS011;63678;47.994;7.854;2023-04-15T13:46:42;7.78;;;3.38;;
2452;SDS011;63678;47.994;7.854;2023-04-15T13:49:15;7.63;;;3.20;;
2452;SDS011;63678;47.994;7.854;2023-04-15T13:51:47;6.63;;;3.20;;
2452;SDS011;63678;47.994;7.854;2023-04-15T13:54:20;5.93;;;2.53;;
2452;SDS011;63678;47.994;7.854;2023-04-15T13:56:53;7.22;;;3.00;;
2452;SDS011;63678;47.994;7.854;2023-04-15T13:59:27;12.48;;;2.53;;
2452;SDS011;63678;47.994;7.854;2023-04-15T14:02:00;8.13;;;2.50;;
2452;SDS011;63678;47.994;7.854;2023-04-15T14:04:33;8.50;;;3.10;;
2452;SDS011;63678;47.994;7.854;2023-04-15T14:07:06;7.97;;;3.38;;
2452;SDS011;63678;47.994;7.854;2023-04-15T14:09:38;6.35;;;3.42;;
2452;SDS011;63678;47.994;7.854;2023-04-15T14:12:14;9.27;;;3.97;;
2452;SDS011;63678;47.994;7.854;2023-04-15T14:14:50;6.67;;;3.67;;
2452;SDS011;63678;47.994;7.854;2023-04-15T14:17:21;5.97;;;3.75;;
2452;SDS011;63678;47.994;7.854;2023-04-15T14:19:54;10.77;;;3.92;;
2452;SDS011;63678;47.994;7.854;2023-04-15T14:22:26;8.35;;;3.90;;
2452;SDS011;63678;47.994;7.854;2023-04-15T14:25:02;6.40;;;3.60;;
2452;SDS011;63678;47.994;7.854;2023-04-15T14:27:35;6.90;;;3.97;;
2452;SDS011;63678;47.994;7.854;2023-04-15T14:30:08;6.68;;;3.70;;
2452;SDS011;63678;47.994;7.854;2023-04-15T14:32:43;7.55;;;3.30;;
2452;SDS011;63678;47.994;7.854;2023-04-15T14:35:16;7.97;;;3.70;;
2452;SDS011;63678;47.994;7.854;2023-04-15T14:38:09;9.02;;;4.00;;
2452;SDS011;63678;47.994;7.854;2023-04-15T14:40:42;7.75;;;3.38;;
2452;SDS011;63678;47.994;7.854;2023-04-15T14:43:35;8.15;;;4.07;;
2452;SDS011;63678;47.994;7.854;2023-04-15T14:46:09;13.10;;;3.75;;
2452;SDS011;63678;47.994;7.854;2023-04-15T14:48:42;7.30;;;3.30;;
2452;SDS011;63678;47.994;7.854;2023-04-15T14:51:14;9.52;;;3.72;;
2452;SDS011;63678;47.994;7.854;2023-04-15T14:53:48;8.23;;;3.80;;
2452;SDS011;63678;47.994;7.854;2023-04-15T14:56:20;7.93;;;4.07;;
2452;SDS011;63678;47.994;7.854;2023-04-15T14:58:52;7.97;;;3.63;;
2452;SDS011;63678;47.994;7.854;2023-04-15T15:01:25;6.15;;;3.30;;
2452;SDS011;63678;47.994;7.854;2023-04-15T15:03:57;9.77;;;3.60;;
2452;SDS011;63678;47.994;7.854;2023-04-15T15:06:30;8.77;;;3.90;;
2452;SDS011;63678;47.994;7.854;2023-04-15T15:09:05;7.32;;;3.10;;
2452;SDS011;63678;47.994;7.854;2023-04-15T15:11:37;6.32;;;3.42;;
2452;SDS011;63678;47.994;7.854;2023-04-15T15:14:10;6.80;;;3.45;;
2452;SDS011;63678;47.994;7.854;2023-04-15T15:16:42;7.15;;;3.03;;
2452;SDS011;63678;47.994;7.854;2023-04-15T15:19:36;6.50;;;2.80;;
2452;SDS011;63678;47.994;7.854;2023-04-15T15:22:12;8.18;;;3.28;;
2452;SDS011;63678;47.994;7.854;2023-04-15T15:24:44;5.18;;;2.85;;
2452;SDS011;63678;47.994;7.854;2023-04-15T15:27:19;5.10;;;3.00;;
2452;SDS011;63678;47.994;7.854;2023-04-15T15:29:52;7.40;;;3.20;;
2452;SDS011;63678;47.994;7.854;2023-04-15T15:32:24;6.30;;;2.77;;
2452;SDS011;63678;47.994;7.854;2023-04-15T15:34:56;6.13;;;2.70;;
2452;SDS011;63678;47.994;7.854;2023-04-15T15:37:29;6.13;;;2.72;;
2452;SDS011;63678;47.994;7.854;2023-04-15T15:40:03;5.65;;;3.30;;
2452;SDS011;63678;47.994;7.854;2023-04-15T15:42:35;5.57;;;2.58;;
2452;SDS011;63678;47.994;7.854;2023-04-15T15:45:08;8.77;;;3.27;;
2452;SDS011;63678;47.994;7.854;2023-04-15T15:47:41;10.05;;;3.00;;
2452;SDS011;63678;47.994;7.854;2023-04-15T15:50:14;5.90;;;2.67;;
2452;SDS011;63678;47.994;7.854;2023-04-15T15:52:46;6.40;;;2.90;;
2452;SDS011;63678;47.994;7.854;2023-04-15T15:55:41;6.43;;;2.78;;
2452;SDS011;63678;47.994;7.854;2023-04-15T15:58:14;7.70;;;3.47;;
2452;SDS011;63678;47.994;7.854;2023-04-15T16:00:47;7.82;;;2.80;;